createdAt,value
2017-06-08T00:00:03.207Z,1003.39
2017-06-08T00:10:02.629Z,1003.56
2017-06-08T00:20:02.712Z,1003.56
2017-06-08T00:30:03.169Z,1003.52
2017-06-08T00:40:02.854Z,1003.51
2017-06-08T00:50:02.845Z,1003.57
2017-06-08T01:00:03.269Z,1003.58
2017-06-08T01:10:03.076Z,1003.53
2017-06-08T01:20:02.810Z,1003.6
2017-06-08T01:30:03.290Z,1003.69
2017-06-08T01:40:03.320Z,1003.71
2017-06-08T01:50:02.882Z,1003.66
2017-06-08T02:00:03.332Z,1003.68
2017-06-08T02:10:02.830Z,1003.57
2017-06-08T02:20:02.626Z,1003.73
2017-06-08T02:30:03.093Z,1003.7
2017-06-08T02:40:03.144Z,1003.72
2017-06-08T02:50:02.758Z,1003.85
2017-06-08T03:00:03.232Z,1004.01
2017-06-08T03:10:02.656Z,1004.19
2017-06-08T03:20:02.723Z,1004.1
2017-06-08T03:30:03.196Z,1004.24
2017-06-08T03:40:02.743Z,1004.2
2017-06-08T03:50:02.938Z,1004.27
2017-06-08T04:00:02.328Z,1004.26
2017-06-08T04:10:02.830Z,1004.31
2017-06-08T04:20:03.075Z,1004.31
2017-06-08T04:30:02.631Z,1004.37
2017-06-08T04:40:02.514Z,1004.25
2017-06-08T04:50:02.564Z,1004.35
2017-06-08T05:00:03.000Z,1004.22
2017-06-08T05:10:02.551Z,1004.22
2017-06-08T05:20:02.930Z,1004.41
2017-06-08T05:30:02.392Z,1004.4
2017-06-08T05:40:02.867Z,1004.43
2017-06-08T05:50:03.296Z,1004.61
2017-06-08T06:00:02.796Z,1004.57
2017-06-08T06:10:02.801Z,1004.65
2017-06-08T06:20:02.845Z,1004.66
2017-06-08T06:30:03.288Z,1004.76
2017-06-08T06:40:02.737Z,1004.87
2017-06-08T06:50:03.376Z,1005.08
2017-06-08T07:00:02.819Z,1005.21
2017-06-08T07:10:03.018Z,1005.37
2017-06-08T07:20:02.568Z,1005.42
2017-06-08T07:30:03.074Z,1005.28
2017-06-08T07:40:03.109Z,1005.35
2017-06-08T07:50:02.962Z,1005.47
2017-06-08T08:00:02.400Z,1005.38
2017-06-08T08:10:02.748Z,1005.32
2017-06-08T08:20:02.947Z,1005.21
2017-06-08T08:30:02.375Z,1005.26
2017-06-08T08:40:02.829Z,1005.14
2017-06-08T08:50:02.994Z,1005
2017-06-08T09:00:02.460Z,1004.93
2017-06-08T09:10:02.612Z,1004.94
2017-06-08T09:20:03.262Z,1004.86
2017-06-08T09:30:02.721Z,1004.9
2017-06-08T09:40:03.342Z,1004.93
2017-06-08T09:50:02.596Z,1005.01
2017-06-08T10:00:03.132Z,1004.9
2017-06-08T10:10:02.622Z,1004.92
2017-06-08T10:20:03.203Z,1004.84
2017-06-08T10:30:02.603Z,1004.77
2017-06-08T10:40:03.088Z,1004.76
2017-06-08T10:50:02.616Z,1004.64
2017-06-08T11:00:03.048Z,1004.5
2017-06-08T11:10:02.892Z,1004.61
2017-06-08T11:20:02.733Z,1004.38
2017-06-08T11:30:03.199Z,1004.34
2017-06-08T11:40:02.784Z,1004.38
2017-06-08T11:50:02.688Z,1004.3
2017-06-08T12:00:03.150Z,1004.24
2017-06-08T12:10:03.423Z,1004.08
2017-06-08T12:20:02.402Z,1004.06
2017-06-08T12:30:02.863Z,1003.99
2017-06-08T12:40:03.324Z,1003.82
2017-06-08T12:50:02.998Z,1003.76
2017-06-08T13:00:02.438Z,1003.66
2017-06-08T13:10:03.306Z,1003.57
2017-06-08T13:20:02.911Z,1003.55
2017-06-08T13:30:02.330Z,1003.44
2017-06-08T13:40:02.815Z,1003.39
2017-06-08T13:50:02.518Z,1003.44
2017-06-08T14:00:02.985Z,1003.19
2017-06-08T14:10:02.544Z,1003.12
2017-06-08T14:20:03.043Z,1003.15
2017-06-08T14:30:02.503Z,1003.14
2017-06-08T14:40:02.937Z,1003.1
2017-06-08T14:50:02.586Z,1003.01
2017-06-08T15:00:03.040Z,1002.9
2017-06-08T15:10:03.178Z,1002.74
2017-06-08T15:20:03.204Z,1002.62
2017-06-08T15:30:02.640Z,1002.47
2017-06-08T15:40:03.125Z,1002.36
2017-06-08T15:50:03.060Z,1002.28
2017-06-08T16:00:02.483Z,1002.12
2017-06-08T16:10:02.954Z,1002.13
2017-06-08T16:20:05.815Z,1002
2017-06-08T16:30:03.233Z,1001.91
2017-06-08T16:40:02.729Z,1001.81
2017-06-08T16:50:02.691Z,1001.81
2017-06-08T17:00:03.173Z,1001.85
2017-06-08T17:10:03.354Z,1001.69
2017-06-08T17:20:03.063Z,1001.66
2017-06-08T17:30:02.496Z,1001.69
2017-06-08T17:40:03.028Z,1001.67
2017-06-08T17:50:02.400Z,1001.51
2017-06-08T18:00:02.848Z,1001.6
2017-06-08T18:10:02.552Z,1001.59
2017-06-08T18:20:02.564Z,1001.7
2017-06-08T18:30:03.000Z,1001.84
2017-06-08T18:40:02.493Z,1001.92
2017-06-08T18:50:02.641Z,1001.88
2017-06-08T19:00:03.088Z,1002.05
2017-06-08T19:10:02.525Z,1001.92
2017-06-08T19:20:03.142Z,1002
2017-06-08T19:30:02.618Z,1002.09
2017-06-08T19:40:03.092Z,1002.18
2017-06-08T19:50:03.087Z,1002.26
2017-06-08T20:00:02.516Z,1002.36
2017-06-08T20:10:03.019Z,1002.51
2017-06-08T20:20:03.102Z,1002.68
2017-06-08T20:30:02.527Z,1002.58
2017-06-08T20:40:02.981Z,1002.63
2017-06-08T20:50:02.689Z,1002.59
2017-06-08T21:00:03.186Z,1002.47
2017-06-08T21:10:02.796Z,1002.39
2017-06-08T21:20:02.889Z,1002.43
2017-06-08T21:30:03.345Z,1002.39
2017-06-08T21:40:02.870Z,1002.24
2017-06-08T21:50:02.832Z,1002.22
2017-06-08T22:00:03.307Z,1002.23
2017-06-08T22:10:03.109Z,1002.11
2017-06-08T22:20:02.469Z,1002.11
2017-06-08T22:30:02.925Z,1002.11
2017-06-08T22:40:02.856Z,1002.03
2017-06-08T22:50:02.517Z,1001.92
2017-06-08T23:00:02.979Z,1001.93
2017-06-08T23:10:02.717Z,1001.86
2017-06-08T23:20:02.758Z,1001.75
2017-06-08T23:30:03.187Z,1001.79
2017-06-08T23:40:02.691Z,1001.69
2017-06-08T23:50:02.966Z,1001.54
